createdAt,value
2018-04-25T00:02:09.150Z,99330.34
2018-04-25T00:04:36.611Z,99324.25
2018-04-25T00:07:04.085Z,99323.55
2018-04-25T00:09:31.600Z,99323.88
2018-04-25T00:11:59.317Z,99314.20
2018-04-25T00:14:26.797Z,99317.73
2018-04-25T00:16:54.251Z,99317.96
2018-04-25T00:19:21.728Z,99313.91
2018-04-25T00:21:49.259Z,99309.00
2018-04-25T00:24:16.781Z,99307.81
2018-04-25T00:26:44.189Z,99310.17
2018-04-25T00:29:11.653Z,99306.23
2018-04-25T00:31:39.122Z,99301.88
2018-04-25T00:34:06.617Z,99298.39
2018-04-25T00:36:34.071Z,99293.85
2018-04-25T00:39:01.523Z,99297.52
2018-04-25T00:41:29.006Z,99294.69
2018-04-25T00:43:56.468Z,99292.78
2018-04-25T00:46:23.977Z,99290.94
2018-04-25T00:48:51.433Z,99294.91
2018-04-25T00:51:18.873Z,99295.08
2018-04-25T00:53:46.364Z,99290.54
2018-04-25T00:56:13.865Z,99288.17
2018-04-25T00:58:41.363Z,99288.08
2018-04-25T01:01:08.821Z,99287.67
2018-04-25T01:03:36.290Z,99280.53
2018-04-25T01:06:03.777Z,99282.04
2018-04-25T01:08:31.315Z,99286.05
2018-04-25T01:10:58.786Z,99280.28
2018-04-25T01:13:26.260Z,99281.65
2018-04-25T01:15:53.733Z,99279.11
2018-04-25T01:18:21.223Z,99283.69
2018-04-25T01:20:48.728Z,99286.50
2018-04-25T01:23:22.057Z,99282.87
2018-04-25T01:25:49.552Z,99284.31
2018-04-25T01:28:22.843Z,99277.84
2018-04-25T01:31:06.158Z,99279.19
2018-04-25T01:33:35.452Z,99277.25
2018-04-25T01:36:06.562Z,99273.00
2018-04-25T01:38:34.101Z,99269.55
2018-04-25T01:41:15.557Z,99271.28
2018-04-25T01:43:45.811Z,99265.62
2018-04-25T01:46:16.873Z,99263.13
2018-04-25T01:49:02.801Z,99260.25
2018-04-25T01:51:41.965Z,99264.87
2018-04-25T01:54:21.255Z,99259.71
2018-04-25T01:57:00.597Z,99260.20
2018-04-25T01:59:39.896Z,99253.71
2018-04-25T02:02:06.825Z,99254.95
2018-04-25T02:04:35.650Z,99254.05
2018-04-25T02:07:03.153Z,99256.47
2018-04-25T02:09:30.652Z,99255.73
2018-04-25T02:11:58.114Z,99254.96
2018-04-25T02:14:25.596Z,99255.73
2018-04-25T02:16:53.098Z,99254.95
2018-04-25T02:19:20.565Z,99258.06
2018-04-25T02:21:48.041Z,99254.80
2018-04-25T02:24:15.502Z,99256.79
2018-04-25T02:26:43.031Z,99260.29
2018-04-25T02:29:10.505Z,99256.56
2018-04-25T02:31:37.963Z,99250.77
2018-04-25T02:34:05.499Z,99249.28
2018-04-25T02:36:32.997Z,99257.16
2018-04-25T02:39:00.476Z,99249.92
2018-04-25T02:41:27.957Z,99250.08
2018-04-25T02:43:55.466Z,99251.77
2018-04-25T02:46:22.915Z,99251.41
2018-04-25T02:48:50.388Z,99250.69
2018-04-25T02:51:17.864Z,99244.62
2018-04-25T02:53:45.329Z,99245.20
2018-04-25T02:56:12.811Z,99240.47
2018-04-25T02:58:40.314Z,99243.84
2018-04-25T03:01:08.227Z,99239.67
2018-04-25T03:03:36.089Z,99236.31
2018-04-25T03:06:04.803Z,99242.75
2018-04-25T03:08:32.278Z,99235.38
2018-04-25T03:10:59.861Z,99239.08
2018-04-25T03:13:27.771Z,99234.61
2018-04-25T03:15:55.235Z,99238.67
2018-04-25T03:18:22.681Z,99238.77
2018-04-25T03:20:50.150Z,99241.64
2018-04-25T03:23:17.687Z,99244.58
2018-04-25T03:25:45.222Z,99240.63
2018-04-25T03:28:12.639Z,99239.98
2018-04-25T03:30:40.083Z,99238.33
2018-04-25T03:33:07.562Z,99240.21
2018-04-25T03:35:35.052Z,99238.19
2018-04-25T03:38:02.542Z,99241.30
2018-04-25T03:40:30.042Z,99241.48
2018-04-25T03:42:57.503Z,99238.00
2018-04-25T03:45:25.077Z,99238.06
2018-04-25T03:47:52.541Z,99231.44
2018-04-25T03:50:20.006Z,99234.47
2018-04-25T03:52:47.516Z,99234.22
2018-04-25T03:55:14.985Z,99232.70
2018-04-25T03:57:42.446Z,99234.22
2018-04-25T04:00:09.902Z,99233.06
2018-04-25T04:02:37.407Z,99226.83
2018-04-25T04:05:05.498Z,99233.35
2018-04-25T04:07:32.988Z,99230.43
2018-04-25T04:10:00.471Z,99233.41
2018-04-25T04:12:27.934Z,99241.43
2018-04-25T04:14:55.403Z,99236.03
2018-04-25T04:17:22.935Z,99239.45
2018-04-25T04:19:50.497Z,99244.36
2018-04-25T04:22:18.025Z,99240.59
2018-04-25T04:24:45.517Z,99243.32
2018-04-25T04:27:12.978Z,99250.38
2018-04-25T04:29:40.446Z,99246.42
2018-04-25T04:32:08.822Z,99254.57
2018-04-25T04:34:36.331Z,99252.50
2018-04-25T04:37:04.119Z,99257.53
2018-04-25T04:39:31.576Z,99252.33
2018-04-25T04:41:59.062Z,99256.50
2018-04-25T04:44:26.523Z,99253.53
2018-04-25T04:46:53.978Z,99261.14
2018-04-25T04:49:21.518Z,99255.16
2018-04-25T04:51:49.195Z,99256.33
2018-04-25T04:54:16.675Z,99260.08
2018-04-25T04:56:44.189Z,99265.34
2018-04-25T04:59:11.667Z,99264.66
2018-04-25T05:01:39.143Z,99266.80
2018-04-25T05:04:06.619Z,99270.23
2018-04-25T05:06:34.082Z,99272.36
2018-04-25T05:09:01.557Z,99271.25
2018-04-25T05:11:29.043Z,99272.48
2018-04-25T05:13:56.510Z,99269.89
2018-04-25T05:16:23.984Z,99268.41
2018-04-25T05:18:51.481Z,99272.61
2018-04-25T05:21:18.931Z,99268.73
2018-04-25T05:23:46.430Z,99270.66
2018-04-25T05:26:13.930Z,99271.84
2018-04-25T05:28:41.379Z,99267.28
2018-04-25T05:31:08.859Z,99270.97
2018-04-25T05:33:36.323Z,99267.94
2018-04-25T05:36:03.816Z,99276.95
2018-04-25T05:38:31.360Z,99275.29
2018-04-25T05:40:58.823Z,99275.97
2018-04-25T05:43:26.285Z,99268.27
2018-04-25T05:45:53.763Z,99276.53
2018-04-25T05:48:21.254Z,99279.56
2018-04-25T05:50:48.713Z,99281.56
2018-04-25T05:53:16.202Z,99282.51
2018-04-25T05:55:44.572Z,99279.77
2018-04-25T05:58:12.048Z,99280.48
2018-04-25T06:00:39.530Z,99277.19
2018-04-25T06:03:07.002Z,99281.44
2018-04-25T06:05:34.541Z,99283.91
2018-04-25T06:08:02.023Z,99286.71
2018-04-25T06:10:29.511Z,99277.97
2018-04-25T06:12:57.000Z,99281.88
2018-04-25T06:15:24.468Z,99287.84
2018-04-25T06:17:51.937Z,99283.17
2018-04-25T06:20:19.463Z,99290.41
2018-04-25T06:22:46.878Z,99288.95
2018-04-25T06:25:14.343Z,99291.20
2018-04-25T06:27:41.801Z,99293.67
2018-04-25T06:30:09.283Z,99289.83
2018-04-25T06:32:36.767Z,99292.61
2018-04-25T06:35:04.245Z,99288.88
2018-04-25T06:37:31.736Z,99293.58
2018-04-25T06:39:59.202Z,99286.88
2018-04-25T06:42:26.664Z,99292.16
2018-04-25T06:44:54.174Z,99298.63
2018-04-25T06:47:21.648Z,99290.02
2018-04-25T06:49:49.134Z,99293.78
2018-04-25T06:52:16.607Z,99299.62
2018-04-25T06:54:44.132Z,99293.64
2018-04-25T06:57:11.598Z,99288.24
2018-04-25T06:59:39.089Z,99292.73
2018-04-25T07:02:06.586Z,99295.30
2018-04-25T07:04:34.063Z,99289.28
2018-04-25T07:07:01.530Z,99281.09
2018-04-25T07:09:29.022Z,99273.62
2018-04-25T07:11:56.507Z,99275.10
2018-04-25T07:14:23.982Z,99279.22
2018-04-25T07:16:51.457Z,99283.63
2018-04-25T07:19:18.938Z,99276.03
2018-04-25T07:21:46.402Z,99275.21
2018-04-25T07:24:13.879Z,99276.95
2018-04-25T07:26:41.378Z,99273.35
2018-04-25T07:29:08.862Z,99267.48
2018-04-25T07:31:36.362Z,99271.42
2018-04-25T07:34:03.889Z,99269.66
2018-04-25T07:36:31.361Z,99269.84
2018-04-25T07:38:58.836Z,99267.88
2018-04-25T07:41:26.317Z,99267.83
2018-04-25T07:43:53.815Z,99262.64
2018-04-25T07:46:21.285Z,99267.56
2018-04-25T07:48:48.762Z,99274.27
2018-04-25T07:51:16.214Z,99269.98
2018-04-25T07:53:43.732Z,99264.79
2018-04-25T07:56:11.276Z,99265.56
2018-04-25T07:58:38.740Z,99255.55
2018-04-25T08:01:06.251Z,99256.80
2018-04-25T08:03:33.826Z,99257.94
2018-04-25T08:06:01.340Z,99252.47
2018-04-25T08:08:28.822Z,99251.67
2018-04-25T08:10:56.338Z,99246.66
2018-04-25T08:13:35.568Z,99248.66
2018-04-25T08:16:14.719Z,99243.98
2018-04-25T08:18:53.887Z,99240.78
2018-04-25T08:21:40.956Z,99243.06
2018-04-25T08:24:08.446Z,99237.23
2018-04-25T08:26:35.952Z,99235.05
2018-04-25T08:29:03.433Z,99233.56
2018-04-25T08:31:31.080Z,99233.28
2018-04-25T08:33:58.551Z,99233.25
2018-04-25T08:36:26.010Z,99229.11
2018-04-25T08:38:53.474Z,99227.59
2018-04-25T08:41:21.008Z,99225.86
2018-04-25T08:43:48.398Z,99224.45
2018-04-25T08:46:15.862Z,99213.56
2018-04-25T08:48:43.325Z,99213.60
2018-04-25T08:51:10.783Z,99213.42
2018-04-25T08:53:38.250Z,99213.19
2018-04-25T08:56:05.922Z,99209.77
2018-04-25T08:58:33.415Z,99207.50
2018-04-25T09:01:00.992Z,99211.25
2018-04-25T09:03:28.451Z,99208.27
2018-04-25T09:05:55.913Z,99205.22
2018-04-25T09:08:23.373Z,99203.45
2018-04-25T09:10:50.834Z,99197.95
2018-04-25T09:13:18.377Z,99188.81
2018-04-25T09:15:45.820Z,99189.78
2018-04-25T09:18:13.891Z,99188.62
2018-04-25T09:20:41.390Z,99182.03
2018-04-25T09:23:08.878Z,99181.68
2018-04-25T09:25:36.340Z,99186.58
2018-04-25T09:28:03.906Z,99180.89
2018-04-25T09:30:31.399Z,99172.79
2018-04-25T09:32:58.856Z,99163.64
2018-04-25T09:35:26.338Z,99165.82
2018-04-25T09:37:53.871Z,99165.00
2018-04-25T09:40:21.338Z,99165.88
2018-04-25T09:42:48.799Z,99165.89
2018-04-25T09:45:16.266Z,99156.96
2018-04-25T09:47:43.811Z,99161.98
2018-04-25T09:50:11.284Z,99159.94
2018-04-25T09:52:39.244Z,99150.29
2018-04-25T09:55:06.709Z,99151.64
2018-04-25T09:57:34.189Z,99141.58
2018-04-25T10:00:01.684Z,99147.02
2018-04-25T10:02:34.067Z,99137.77
2018-04-25T10:05:01.546Z,99138.31
2018-04-25T10:07:29.026Z,99133.63
2018-04-25T10:09:56.494Z,99136.23
2018-04-25T10:12:23.989Z,99140.91
2018-04-25T10:14:51.476Z,99141.73
2018-04-25T10:17:19.000Z,99133.97
2018-04-25T10:19:46.440Z,99128.88
2018-04-25T10:22:13.877Z,99133.55
2018-04-25T10:24:41.324Z,99122.55
2018-04-25T10:27:08.785Z,99122.59
2018-04-25T10:29:36.246Z,99135.20
2018-04-25T10:32:03.790Z,99125.24
2018-04-25T10:34:31.211Z,99133.55
2018-04-25T10:36:58.654Z,99160.83
2018-04-25T10:39:26.111Z,99121.04
2018-04-25T10:41:53.634Z,99124.65
2018-04-25T10:44:21.094Z,99141.84
2018-04-25T10:46:48.556Z,99111.28
2018-04-25T10:49:16.026Z,99125.26
2018-04-25T10:51:43.477Z,99111.38
2018-04-25T10:54:10.930Z,99106.53
2018-04-25T10:56:39.415Z,99100.94
2018-04-25T10:59:06.891Z,99116.02
2018-04-25T11:01:34.501Z,99106.39
2018-04-25T11:04:02.006Z,99099.23
2018-04-25T11:06:29.498Z,99094.70
2018-04-25T11:08:56.997Z,99094.73
2018-04-25T11:11:24.473Z,99095.11
2018-04-25T11:13:52.075Z,99084.86
2018-04-25T11:16:19.532Z,99092.97
2018-04-25T11:18:46.990Z,99097.59
2018-04-25T11:21:14.446Z,99086.37
2018-04-25T11:23:41.930Z,99074.44
2018-04-25T11:26:09.446Z,99072.30
2018-04-25T11:28:36.923Z,99064.55
2018-04-25T11:31:05.265Z,99080.94
2018-04-25T11:33:32.731Z,99071.91
2018-04-25T11:36:00.197Z,99053.07
2018-04-25T11:38:27.731Z,99062.34
2018-04-25T11:40:55.214Z,99053.57
2018-04-25T11:43:22.701Z,99045.20
2018-04-25T11:45:50.183Z,99059.54
2018-04-25T11:48:17.645Z,99051.16
2018-04-25T11:50:45.119Z,99046.60
2018-04-25T11:53:12.579Z,99051.05
2018-04-25T11:55:40.037Z,99035.52
2018-04-25T11:58:07.506Z,99037.17
2018-04-25T12:00:34.974Z,99022.75
2018-04-25T12:03:02.462Z,99026.91
2018-04-25T12:05:30.955Z,99019.85
2018-04-25T12:07:58.406Z,99033.39
2018-04-25T12:10:25.905Z,99009.58
2018-04-25T12:12:53.517Z,99008.33
2018-04-25T12:15:21.074Z,99015.72
2018-04-25T12:17:48.544Z,99009.01
2018-04-25T12:20:15.986Z,99007.09
2018-04-25T12:22:43.500Z,99003.76
2018-04-25T12:25:10.994Z,99019.09
2018-04-25T12:27:38.444Z,99021.34
2018-04-25T12:30:06.556Z,99014.67
2018-04-25T12:32:34.047Z,99009.84
2018-04-25T12:35:01.527Z,99012.63
2018-04-25T12:37:29.002Z,99007.12
2018-04-25T12:39:56.527Z,98997.80
2018-04-25T12:42:24.013Z,98997.08
2018-04-25T12:44:51.482Z,98980.73
2018-04-25T12:47:19.020Z,98989.27
2018-04-25T12:49:46.532Z,99019.07
2018-04-25T12:52:14.020Z,98989.63
2018-04-25T12:54:41.496Z,98977.54
2018-04-25T12:57:08.968Z,98976.15
2018-04-25T12:59:36.422Z,98978.25
2018-04-25T13:02:03.924Z,98984.99
2018-04-25T13:04:31.364Z,98973.50
2018-04-25T13:06:59.727Z,98975.84
2018-04-25T13:09:27.198Z,98964.23
2018-04-25T13:11:54.672Z,98978.97
2018-04-25T13:14:22.109Z,98967.45
2018-04-25T13:16:49.572Z,98961.41
2018-04-25T13:19:17.046Z,98969.07
2018-04-25T13:21:44.515Z,98972.63
2018-04-25T13:24:12.060Z,98953.66
2018-04-25T13:26:39.586Z,98946.30
2018-04-25T13:29:07.060Z,98943.78
2018-04-25T13:31:34.541Z,98941.26
2018-04-25T13:34:02.004Z,98936.55
2018-04-25T13:36:29.552Z,98927.50
2018-04-25T13:38:57.056Z,98928.73
2018-04-25T13:41:24.509Z,98929.62
2018-04-25T13:43:52.016Z,98913.55
2018-04-25T13:46:19.571Z,98921.70
2018-04-25T13:48:47.026Z,98914.48
2018-04-25T13:51:14.509Z,98917.85
2018-04-25T13:53:41.997Z,98914.97
2018-04-25T13:56:09.466Z,98921.10
2018-04-25T13:58:36.927Z,98903.70
2018-04-25T14:01:05.700Z,98919.72
2018-04-25T14:03:33.158Z,98921.38
2018-04-25T14:06:00.752Z,98914.13
2018-04-25T14:08:28.217Z,98921.04
2018-04-25T14:10:55.684Z,98916.14
2018-04-25T14:13:23.175Z,98911.81
2018-04-25T14:15:50.618Z,98907.64
2018-04-25T14:18:18.194Z,98931.88
2018-04-25T14:20:45.743Z,98917.26
2018-04-25T14:23:13.221Z,98914.52
2018-04-25T14:25:40.706Z,98911.56
2018-04-25T14:28:08.174Z,98906.08
2018-04-25T14:30:35.626Z,98914.46
2018-04-25T14:33:03.087Z,98913.63
2018-04-25T14:35:30.577Z,98916.14
2018-04-25T14:37:58.046Z,98900.80
2018-04-25T14:40:25.503Z,98905.36
2018-04-25T14:42:52.959Z,98900.81
2018-04-25T14:45:20.423Z,98898.67
2018-04-25T14:47:47.873Z,98898.80
2018-04-25T14:50:15.349Z,98909.33
2018-04-25T14:52:42.983Z,98911.37
2018-04-25T14:55:10.452Z,98899.88
2018-04-25T14:57:37.911Z,98892.98
2018-04-25T15:00:05.734Z,98889.34
2018-04-25T15:02:33.207Z,98885.59
2018-04-25T15:05:00.697Z,98882.88
2018-04-25T15:07:28.212Z,98880.89
2018-04-25T15:09:55.665Z,98872.94
2018-04-25T15:12:23.151Z,98871.05
2018-04-25T15:14:50.629Z,98866.45
2018-04-25T15:17:18.141Z,98872.41
2018-04-25T15:19:45.718Z,98877.52
2018-04-25T15:22:13.183Z,98873.55
2018-04-25T15:24:40.643Z,98881.73
2018-04-25T15:27:08.546Z,98875.74
2018-04-25T15:29:36.077Z,98871.33
2018-04-25T15:32:03.984Z,98868.79
2018-04-25T15:34:31.475Z,98872.47
2018-04-25T15:36:59.138Z,98872.98
2018-04-25T15:39:26.653Z,98864.63
2018-04-25T15:41:54.412Z,98865.31
2018-04-25T15:44:21.866Z,98860.69
2018-04-25T15:46:49.339Z,98865.92
2018-04-25T15:49:16.807Z,98867.40
2018-04-25T15:51:44.335Z,98854.09
2018-04-25T15:54:11.818Z,98863.61
2018-04-25T15:56:39.338Z,98863.11
2018-04-25T15:59:06.804Z,98863.08
2018-04-25T16:01:34.256Z,98862.80
2018-04-25T16:04:01.729Z,98856.31
2018-04-25T16:06:29.192Z,98852.56
2018-04-25T16:08:56.659Z,98851.47
2018-04-25T16:11:24.169Z,98845.60
2018-04-25T16:13:52.655Z,98855.27
2018-04-25T16:16:20.214Z,98846.64
2018-04-25T16:18:47.686Z,98841.12
2018-04-25T16:21:15.271Z,98844.75
2018-04-25T16:23:42.685Z,98838.53
2018-04-25T16:26:10.164Z,98835.97
2018-04-25T16:28:37.622Z,98833.77
2018-04-25T16:31:06.236Z,98823.42
2018-04-25T16:33:33.647Z,98820.08
2018-04-25T16:36:01.217Z,98831.56
2018-04-25T16:38:28.696Z,98822.86
2018-04-25T16:40:56.298Z,98820.92
2018-04-25T16:43:23.820Z,98820.29
2018-04-25T16:45:51.274Z,98822.63
2018-04-25T16:48:18.762Z,98822.70
2018-04-25T16:50:46.494Z,98811.49
2018-04-25T16:53:13.954Z,98808.70
2018-04-25T16:55:41.415Z,98818.31
2018-04-25T16:58:08.898Z,98812.67
2018-04-25T17:00:36.375Z,98815.73
2018-04-25T17:03:03.926Z,98812.19
2018-04-25T17:05:31.570Z,98810.08
2018-04-25T17:07:59.039Z,98811.01
2018-04-25T17:10:26.501Z,98814.47
2018-04-25T17:12:54.372Z,98807.23
2018-04-25T17:15:21.845Z,98806.64
2018-04-25T17:17:49.311Z,98807.31
2018-04-25T17:20:16.774Z,98812.13
2018-04-25T17:22:44.269Z,98810.80
2018-04-25T17:25:11.736Z,98803.03
2018-04-25T17:27:39.214Z,98803.23
2018-04-25T17:30:06.680Z,98802.80
2018-04-25T17:32:34.214Z,98800.23
2018-04-25T17:35:01.682Z,98804.30
2018-04-25T17:37:29.194Z,98810.54
2018-04-25T17:39:56.677Z,98803.45
2018-04-25T17:42:24.153Z,98801.92
2018-04-25T17:44:52.326Z,98810.36
2018-04-25T17:47:19.783Z,98810.81
2018-04-25T17:49:47.282Z,98802.91
2018-04-25T17:52:14.775Z,98801.14
2018-04-25T17:54:42.295Z,98804.53
2018-04-25T17:57:11.082Z,98803.58
2018-04-25T17:59:39.315Z,98810.70
2018-04-25T18:02:07.136Z,98814.70
2018-04-25T18:04:34.618Z,98815.79
2018-04-25T18:07:02.094Z,98828.28
2018-04-25T18:09:29.553Z,98828.42
2018-04-25T18:11:56.994Z,98832.17
2018-04-25T18:14:24.487Z,98836.95
2018-04-25T18:16:52.017Z,98839.97
2018-04-25T18:19:19.462Z,98842.94
2018-04-25T18:21:46.938Z,98837.97
2018-04-25T18:24:14.404Z,98838.52
2018-04-25T18:26:41.911Z,98850.55
2018-04-25T18:29:09.409Z,98852.89
2018-04-25T18:31:37.508Z,98859.24
2018-04-25T18:34:05.080Z,98865.63
2018-04-25T18:36:32.590Z,98865.23
2018-04-25T18:39:00.100Z,98875.88
2018-04-25T18:41:27.618Z,98876.20
2018-04-25T18:43:55.163Z,98883.05
2018-04-25T18:46:22.632Z,98889.17
2018-04-25T18:48:50.105Z,98887.75
2018-04-25T18:51:17.574Z,98898.91
2018-04-25T18:53:45.069Z,98893.71
2018-04-25T18:56:12.540Z,98901.66
2018-04-25T18:58:40.010Z,98911.53
2018-04-25T19:01:07.595Z,98909.96
2018-04-25T19:03:35.090Z,98912.44
2018-04-25T19:06:02.559Z,98915.06
2018-04-25T19:08:30.105Z,98918.30
2018-04-25T19:10:57.589Z,98922.50
2018-04-25T19:13:25.074Z,98927.27
2018-04-25T19:15:52.572Z,98934.03
2018-04-25T19:18:20.132Z,98934.50
2018-04-25T19:20:47.653Z,98932.68
2018-04-25T19:23:15.485Z,98932.78
2018-04-25T19:25:43.623Z,98928.63
2018-04-25T19:28:11.107Z,98929.45
2018-04-25T19:30:38.620Z,98934.72
2018-04-25T19:33:06.106Z,98931.83
2018-04-25T19:35:33.584Z,98929.63
2018-04-25T19:38:01.172Z,98928.20
2018-04-25T19:40:28.714Z,98930.07
2018-04-25T19:42:56.234Z,98930.64
2018-04-25T19:45:23.874Z,98926.42
2018-04-25T19:47:51.348Z,98925.48
2018-04-25T19:50:18.839Z,98916.40
2018-04-25T19:52:46.363Z,98914.13
2018-04-25T19:55:14.167Z,98919.58
2018-04-25T19:57:41.655Z,98914.73
2018-04-25T20:00:09.136Z,98914.17
2018-04-25T20:02:36.688Z,98903.41
2018-04-25T20:05:04.254Z,98905.13
2018-04-25T20:07:31.768Z,98911.03
2018-04-25T20:09:59.287Z,98920.04
2018-04-25T20:12:27.360Z,98924.32
2018-04-25T20:14:54.856Z,98929.53
2018-04-25T20:17:22.470Z,98952.86
2018-04-25T20:19:50.031Z,98957.94
2018-04-25T20:22:17.532Z,98970.58
2018-04-25T20:24:45.098Z,98969.09
2018-04-25T20:27:12.850Z,98964.75
2018-04-25T20:29:40.400Z,98971.49
2018-04-25T20:32:07.825Z,98971.06
2018-04-25T20:34:35.567Z,98974.13
2018-04-25T20:37:03.042Z,98971.92
2018-04-25T20:39:30.560Z,98972.70
2018-04-25T20:41:58.176Z,98973.67
2018-04-25T20:44:25.703Z,98973.59
2018-04-25T20:46:53.290Z,98984.39
2018-04-25T20:49:20.772Z,98997.24
2018-04-25T20:51:48.235Z,98994.39
2018-04-25T20:54:15.760Z,98996.88
2018-04-25T20:56:43.228Z,98998.50
2018-04-25T20:59:10.844Z,99000.41
2018-04-25T21:01:38.318Z,98996.78
2018-04-25T21:04:09.933Z,99004.65
2018-04-25T21:06:37.462Z,99002.51
2018-04-25T21:09:04.962Z,99010.86
2018-04-25T21:11:32.430Z,99025.76
2018-04-25T21:13:59.898Z,99025.34
2018-04-25T21:16:27.387Z,99030.11
2018-04-25T21:18:54.852Z,99034.14
2018-04-25T21:21:22.338Z,99042.85
2018-04-25T21:23:49.942Z,99044.78
2018-04-25T21:26:17.399Z,99050.02
2018-04-25T21:28:44.887Z,99044.02
2018-04-25T21:31:12.859Z,99042.84
2018-04-25T21:33:40.343Z,99047.91
2018-04-25T21:36:07.853Z,99059.45
2018-04-25T21:38:35.379Z,99047.30
2018-04-25T21:41:02.888Z,99048.44
2018-04-25T21:43:30.360Z,99056.35
2018-04-25T21:45:57.876Z,99056.05
2018-04-25T21:48:25.377Z,99069.17
2018-04-25T21:50:52.836Z,99069.38
2018-04-25T21:53:20.335Z,99067.55
2018-04-25T21:55:47.823Z,99065.83
2018-04-25T21:58:15.283Z,99065.06
2018-04-25T22:00:42.735Z,99072.13
2018-04-25T22:03:10.209Z,99066.13
2018-04-25T22:05:37.690Z,99070.09
2018-04-25T22:08:05.247Z,99066.66
2018-04-25T22:10:32.737Z,99081.97
2018-04-25T22:13:00.270Z,99078.34
2018-04-25T22:15:27.719Z,99075.86
2018-04-25T22:17:55.201Z,99074.45
2018-04-25T22:20:22.656Z,99082.67
2018-04-25T22:22:50.225Z,99085.67
2018-04-25T22:25:17.720Z,99085.39
2018-04-25T22:27:45.191Z,99089.71
2018-04-25T22:30:12.701Z,99087.20
2018-04-25T22:32:40.213Z,99096.10
2018-04-25T22:35:07.689Z,99097.84
2018-04-25T22:37:35.189Z,99105.19
2018-04-25T22:40:02.683Z,99105.66
2018-04-25T22:42:30.180Z,99097.08
2018-04-25T22:44:57.647Z,99101.83
2018-04-25T22:47:25.131Z,99099.46
2018-04-25T22:49:52.665Z,99107.87
2018-04-25T22:52:20.098Z,99110.61
2018-04-25T22:54:47.656Z,99106.87
2018-04-25T22:57:15.133Z,99113.22
2018-04-25T22:59:42.624Z,99112.88
2018-04-25T23:02:10.105Z,99111.19
2018-04-25T23:04:37.577Z,99110.47
2018-04-25T23:07:05.188Z,99108.41
2018-04-25T23:09:33.713Z,99117.60
2018-04-25T23:12:01.207Z,99117.13
2018-04-25T23:14:28.683Z,99115.02
2018-04-25T23:16:56.156Z,99120.33
2018-04-25T23:19:23.646Z,99121.15
2018-04-25T23:21:51.107Z,99131.02
2018-04-25T23:24:18.615Z,99133.70
2018-04-25T23:26:46.229Z,99132.30
2018-04-25T23:29:13.780Z,99131.87
2018-04-25T23:31:41.273Z,99131.48
2018-04-25T23:34:08.796Z,99128.94
2018-04-25T23:36:36.291Z,99126.14
2018-04-25T23:39:03.858Z,99127.14
2018-04-25T23:41:31.589Z,99127.94
2018-04-25T23:43:59.186Z,99130.56
2018-04-25T23:46:26.643Z,99134.17
2018-04-25T23:48:54.121Z,99117.77
2018-04-25T23:51:21.613Z,99123.63
2018-04-25T23:53:49.124Z,99118.53
2018-04-25T23:56:16.619Z,99120.02
2018-04-25T23:58:44.327Z,99121.70
